Gennaro Ievoli — 9HA3007 — position and weather

sailwx.info

Track history (hours):
 
Tides and Currents Weather Stations Pressure Air Temp Water Temp Dewpoint Dewpoint Depression Visibility Wind Speed Wind Dir Waves Ship Positions

Gennaro Ievoli

Last reported at 2017-Oct-08 04:02 UTC. Time now 2017-Oct-20 07:19 UTC.
Position N 01°19' E 103°20'.
Warning: this ship's position is 12 days out of date.

Length 170 m; draft 10.2 m.

Type: Tanker. MMSI: 229031000.

Date/timePositionNaut miles runAvg speedWind from/ knotsBaromVisibWave heightAir tempDewpointWater temp
2017-Oct-08 04:02N 01°19' E 103°20'211.1
2017-Oct-08 03:54N 01°18' E 103°22'511.4
2017-Oct-08 03:30N 01°15' E 103°25'612.0
2017-Oct-08 02:59N 01°13' E 103°31'612.5
2017-Oct-08 02:30N 01°12' E 103°37'3 5.8
2017-Oct-08 02:01N 01°13' E 103°39'0 1.0
2017-Oct-08 01:29N 01°13' E 103°39'0 0.1
2017-Oct-08 00:59N 01°13' E 103°39'0 0.2
2017-Oct-08 00:26N 01°13' E 103°39'0 0.1
2017-Oct-07 23:56N 01°13' E 103°39'0 0.1
2017-Oct-07 23:29N 01°13' E 103°39'0 0.1
2017-Oct-07 22:59N 01°13' E 103°39'0 0.1
2017-Oct-07 22:23N 01°13' E 103°39'0 0.2
2017-Oct-07 21:59N 01°13' E 103°39'0 0.0
2017-Oct-07 21:29N 01°13' E 103°39'0 0.0
2017-Oct-07 20:56N 01°13' E 103°39'0 0.0
2017-Oct-07 20:29N 01°13' E 103°39'0 0.0
2017-Oct-07 19:59N 01°13' E 103°39'0 0.1
2017-Oct-07 19:26N 01°13' E 103°39'0 0.0
2017-Oct-07 18:59N 01°13' E 103°39'0 0.0
2017-Oct-07 18:29N 01°13' E 103°39'0 0.1
2017-Oct-07 17:56N 01°13' E 103°39'0 0.0
2017-Oct-07 17:26N 01°13' E 103°39'0 0.1
2017-Oct-07 16:59N 01°13' E 103°39'0 0.1
2017-Oct-07 16:26N 01°13' E 103°39'1 1.2
2017-Oct-07 15:57N 01°13' E 103°39'2034.0
2017-Oct-07 15:21N 01°16' E 103°60'1 2.7
2017-Oct-07 15:00N 01°16' E 104°01'1 2.8
2017-Oct-07 14:30N 01°16' E 104°02'1 2.6
2017-Oct-07 14:00N 01°16' E 104°03'2535.1
2017-Oct-07 13:17N 01°13' E 103°39'0 0.0
2017-Oct-07 12:59N 01°13' E 103°39'0 0.1
2017-Oct-07 12:20N 01°13' E 103°39'0 0.0
2017-Oct-07 11:56N 01°13' E 103°39'0 0.3
2017-Oct-07 11:29N 01°13' E 103°39'0 0.0
2017-Oct-07 10:53N 01°13' E 103°39'0 0.0
2017-Oct-07 10:29N 01°13' E 103°39'0 0.0
2017-Oct-07 09:53N 01°13' E 103°39'0 0.3
2017-Oct-07 09:23N 01°13' E 103°39'0 0.4
2017-Oct-07 08:59N 01°13' E 103°39'2 4.2
2017-Oct-07 08:30N 01°11' E 103°40'510.5
2017-Oct-07 07:59N 01°09' E 103°45'611.5
2017-Oct-07 07:30N 01°11' E 103°50'510.8
2017-Oct-07 07:00N 01°14' E 103°55'  
Track history (hours):
 
Tides and Currents Weather Stations Pressure Air Temp Water Temp Dewpoint Dewpoint Depression Visibility Wind Speed Wind Dir Waves Ship Positions

Gennaro Ievoli

Last reported at 2017-Oct-08 04:02 UTC. Time now 2017-Oct-20 07:19 UTC.
Position N 01°19' E 103°20'.
Warning: this ship's position is 12 days out of date.

Length 170 m; draft 10.2 m.

Type: Tanker. MMSI: 229031000.

Date/timePositionNaut miles runAvg speedWind from/ knotsBaromVisibWave heightAir tempDewpointWater temp
2017-Oct-08 04:02N 01°19' E 103°20'211.1
2017-Oct-08 03:54N 01°18' E 103°22'511.4
2017-Oct-08 03:30N 01°15' E 103°25'612.0
2017-Oct-08 02:59N 01°13' E 103°31'612.5
2017-Oct-08 02:30N 01°12' E 103°37'3 5.8
2017-Oct-08 02:01N 01°13' E 103°39'0 1.0
2017-Oct-08 01:29N 01°13' E 103°39'0 0.1
2017-Oct-08 00:59N 01°13' E 103°39'0 0.2
2017-Oct-08 00:26N 01°13' E 103°39'0 0.1
2017-Oct-07 23:56N 01°13' E 103°39'0 0.1
2017-Oct-07 23:29N 01°13' E 103°39'0 0.1
2017-Oct-07 22:59N 01°13' E 103°39'0 0.1
2017-Oct-07 22:23N 01°13' E 103°39'0 0.2
2017-Oct-07 21:59N 01°13' E 103°39'0 0.0
2017-Oct-07 21:29N 01°13' E 103°39'0 0.0
2017-Oct-07 20:56N 01°13' E 103°39'0 0.0
2017-Oct-07 20:29N 01°13' E 103°39'0 0.0
2017-Oct-07 19:59N 01°13' E 103°39'0 0.1
2017-Oct-07 19:26N 01°13' E 103°39'0 0.0
2017-Oct-07 18:59N 01°13' E 103°39'0 0.0
2017-Oct-07 18:29N 01°13' E 103°39'0 0.1
2017-Oct-07 17:56N 01°13' E 103°39'0 0.0
2017-Oct-07 17:26N 01°13' E 103°39'0 0.1
2017-Oct-07 16:59N 01°13' E 103°39'0 0.1
2017-Oct-07 16:26N 01°13' E 103°39'1 1.2
2017-Oct-07 15:57N 01°13' E 103°39'2034.0
2017-Oct-07 15:21N 01°16' E 103°60'1 2.7
2017-Oct-07 15:00N 01°16' E 104°01'1 2.8
2017-Oct-07 14:30N 01°16' E 104°02'1 2.6
2017-Oct-07 14:00N 01°16' E 104°03'2535.1
2017-Oct-07 13:17N 01°13' E 103°39'0 0.0
2017-Oct-07 12:59N 01°13' E 103°39'0 0.1
2017-Oct-07 12:20N 01°13' E 103°39'0 0.0
2017-Oct-07 11:56N 01°13' E 103°39'0 0.3
2017-Oct-07 11:29N 01°13' E 103°39'0 0.0
2017-Oct-07 10:53N 01°13' E 103°39'0 0.0
2017-Oct-07 10:29N 01°13' E 103°39'0 0.0
2017-Oct-07 09:53N 01°13' E 103°39'0 0.3
2017-Oct-07 09:23N 01°13' E 103°39'0 0.4
2017-Oct-07 08:59N 01°13' E 103°39'2 4.2
2017-Oct-07 08:30N 01°11' E 103°40'510.5
2017-Oct-07 07:59N 01°09' E 103°45'611.5
2017-Oct-07 07:30N 01°11' E 103°50'510.8
2017-Oct-07 07:00N 01°14' E 103°55'  

Dump ship's entire track history